Time;durP1;ratioP1;P1;durP2;ratioP2;P2;SDS_P1;SDS_P2;PMS_P1;PMS_P2;Temp;Humidity;BMP_temperature;BMP_pressure;BME280_temperature;BME280_humidity;BME280_pressure;Samples;Min_cycle;Max_cycle;Signal;HPM_P1;HPM_P2
2023/11/10 00:13:23;;;;;;;8.83;6.57;;;;;;;-147.20;100.00;63046.97;31545241;28;20052;-66
2023/11/10 00:28:23;;;;;;;9.10;6.25;;;;;;;-147.20;100.00;63046.97;31544164;28;20032;-66
2023/11/10 00:43:23;;;;;;;10.98;6.32;;;;;;;-147.20;100.00;63046.97;31542577;28;20495;-63
2023/11/10 00:58:24;;;;;;;9.02;6.82;;;;;;;-147.20;100.00;63046.97;31540851;28;20057;-67
2023/11/10 01:13:24;;;;;;;8.93;7.00;;;;;;;-147.20;100.00;63046.97;31540182;28;20124;-65
2023/11/10 01:28:25;;;;;;;10.45;7.55;;;;;;;-147.20;100.00;63046.97;31540124;28;20029;-63
2023/11/10 01:43:26;;;;;;;10.30;8.25;;;;;;;-147.20;100.00;63046.97;31538335;28;20095;-66
2023/11/10 01:58:26;;;;;;;10.57;8.30;;;;;;;-147.20;100.00;63046.97;31536407;28;20061;-66
2023/11/10 02:13:27;;;;;;;12.40;9.13;;;;;;;-147.20;100.00;63046.97;31534504;28;20025;-65
2023/11/10 02:28:27;;;;;;;15.68;8.30;;;;;;;-147.20;100.00;63046.97;31544070;28;20033;-67
2023/11/10 02:43:28;;;;;;;10.88;8.30;;;;;;;-147.20;100.00;63046.97;31554406;28;20032;-65
2023/11/10 02:58:30;;;;;;;10.02;7.93;;;;;;;-147.20;100.00;63046.97;31552654;28;20056;-67
2023/11/10 03:13:32;;;;;;;9.95;7.40;;;;;;;-147.20;100.00;63046.97;31551585;28;20033;-65
2023/11/10 03:28:32;;;;;;;10.35;7.55;;;;;;;-147.20;100.00;63046.97;31550715;28;20119;-64
2023/11/10 03:43:33;;;;;;;8.05;6.53;;;;;;;-147.20;100.00;63046.97;31549872;28;20057;-67
2023/11/10 03:58:34;;;;;;;9.02;6.60;;;;;;;-147.20;100.00;63046.97;31545453;28;20076;-65
2023/11/10 04:13:35;;;;;;;8.13;6.15;;;;;;;-147.20;100.00;63046.97;31544723;28;20580;-67
2023/11/10 04:28:38;;;;;;;10.07;6.97;;;;;;;-147.20;100.00;63046.97;31542162;28;20083;-64
2023/11/10 04:43:40;;;;;;;9.27;6.70;;;;;;;-147.20;100.00;63046.97;31540024;28;20040;-66
2023/11/10 04:58:43;;;;;;;8.05;5.97;;;;;;;-147.20;100.00;63046.97;31539182;28;20178;-66
2023/11/10 05:13:44;;;;;;;9.03;6.10;;;;;;;-147.20;100.00;63046.97;31537724;28;20044;-66
2023/11/10 05:28:44;;;;;;;10.65;5.60;;;;;;;-147.20;100.00;63046.97;31535343;28;20037;-64
2023/11/10 05:43:46;;;;;;;7.05;4.95;;;;;;;-147.20;100.00;63046.97;31533564;28;20029;-65
2023/11/10 05:58:46;;;;;;;6.47;4.50;;;;;;;-147.20;100.00;63046.97;31535095;28;20049;-64
2023/11/10 06:13:48;;;;;;;11.02;5.65;;;;;;;-147.20;100.00;63046.97;31552215;28;26055;-64
2023/11/10 06:28:50;;;;;;;8.25;5.93;;;;;;;-147.20;100.00;63046.97;31552988;28;20081;-64
2023/11/10 06:43:51;;;;;;;8.68;5.95;;;;;;;-147.20;100.00;63046.97;31550750;28;20040;-63
2023/11/10 06:58:51;;;;;;;8.90;6.88;;;;;;;-147.20;100.00;63046.97;31542361;28;20041;-65
2023/11/10 07:13:51;;;;;;;13.43;8.02;;;;;;;-147.20;100.00;63046.97;31538262;28;20144;-67
2023/11/10 07:28:52;;;;;;;13.00;7.97;;;;;;;-147.20;100.00;63046.97;31539972;28;20037;-66
2023/11/10 07:43:52;;;;;;;9.35;6.00;;;;;;;-147.20;100.00;63046.97;31537522;28;20195;-66
2023/11/10 07:58:53;;;;;;;9.15;5.68;;;;;;;-147.20;100.00;63046.97;31502980;28;1058808;-66
2023/11/10 08:13:54;;;;;;;9.10;6.28;;;;;;;-147.20;100.00;63046.97;31542807;28;20037;-65
2023/11/10 08:28:54;;;;;;;9.00;6.05;;;;;;;-147.20;100.00;63046.97;31540404;28;20060;-67
2023/11/10 08:43:54;;;;;;;8.32;4.80;;;;;;;-147.20;100.00;63046.97;31535943;28;20052;-67
2023/11/10 08:58:56;;;;;;;8.68;6.22;;;;;;;-147.20;100.00;63046.97;31534459;28;20045;-64
2023/11/10 09:13:56;;;;;;;8.80;6.07;;;;;;;-147.20;100.00;63046.97;31532900;28;20039;-64
2023/11/10 09:28:56;;;;;;;6.00;4.60;;;;;;;-147.20;100.00;63046.97;31531090;28;20469;-65
2023/11/10 09:43:57;;;;;;;6.97;5.43;;;;;;;-147.20;100.00;63046.97;31531945;28;20025;-66
2023/11/10 09:58:59;;;;;;;6.85;4.45;;;;;;;-147.20;100.00;63046.97;31530939;28;20045;-68
2023/11/10 10:14:00;;;;;;;9.60;5.17;;;;;;;-147.20;100.00;63046.97;31530853;28;20079;-66
2023/11/10 10:29:00;;;;;;;11.35;5.30;;;;;;;-147.20;100.00;63046.97;31530712;28;20044;-66
2023/11/10 10:44:02;;;;;;;7.70;5.15;;;;;;;-147.20;100.00;63046.97;31530888;28;20033;-66
2023/11/10 10:59:06;;;;;;;7.25;4.32;;;;;;;-147.20;100.00;63046.97;31548621;28;20056;-64
2023/11/10 11:14:45;;;;;;;10.05;5.40;;;;;;;-147.20;100.00;63046.97;31548960;28;20040;-64
2023/11/10 11:29:45;;;;;;;9.38;5.78;;;;;;;-147.20;100.00;63046.97;31543741;28;20037;-64
2023/11/10 11:44:56;;;;;;;8.32;5.13;;;;;;;-147.20;100.00;63046.97;31544341;28;20087;-65
2023/11/10 11:59:57;;;;;;;9.63;6.20;;;;;;;-147.20;100.00;63046.97;31542762;28;20080;-65
2023/11/10 12:14:58;;;;;;;11.23;5.65;;;;;;;-147.20;100.00;63046.97;31542302;28;20091;-64
2023/11/10 12:29:58;;;;;;;8.13;4.95;;;;;;;-147.20;100.00;63046.97;31538157;28;20033;-65
2023/11/10 12:44:59;;;;;;;7.68;5.55;;;;;;;-147.20;100.00;63046.97;31537579;28;20029;-66
2023/11/10 13:00:11;;;;;;;13.18;7.13;;;;;;;-147.20;100.00;63046.97;31537314;28;20236;-63
2023/11/10 13:15:12;;;;;;;9.88;6.30;;;;;;;-147.20;100.00;63046.97;31534551;28;20040;-65
2023/11/10 13:30:13;;;;;;;9.23;5.95;;;;;;;-147.20;100.00;63046.97;31532386;28;20041;-67
2023/11/10 13:45:14;;;;;;;9.60;5.22;;;;;;;-147.20;100.00;63046.97;31533570;28;20115;-64
2023/11/10 14:00:15;;;;;;;10.95;6.32;;;;;;;-147.20;100.00;63046.97;31531064;28;20053;-65
2023/11/10 14:15:16;;;;;;;9.50;6.10;;;;;;;-147.20;100.00;63046.97;31530942;28;20506;-65
2023/11/10 14:30:17;;;;;;;11.35;6.00;;;;;;;-147.20;100.00;63046.97;31548154;28;20056;-65
2023/11/10 14:45:21;;;;;;;18.33;8.27;;;;;;;-147.20;100.00;63046.97;31550776;28;20416;-66
2023/11/10 15:00:22;;;;;;;12.87;7.43;;;;;;;-147.20;100.00;63046.97;31548291;28;20075;-65
2023/11/10 15:15:23;;;;;;;13.65;8.68;;;;;;;-147.20;100.00;63046.97;31548031;28;20287;-64
2023/11/10 15:30:23;;;;;;;12.18;8.02;;;;;;;-147.20;100.00;63046.97;31546101;28;20029;-63
2023/11/10 15:45:24;;;;;;;14.70;9.15;;;;;;;-147.20;100.00;63046.97;31546495;28;20160;-65
2023/11/10 16:00:24;;;;;;;13.80;8.65;;;;;;;-147.20;100.00;63046.97;31544346;28;20071;-63
2023/11/10 16:15:25;;;;;;;11.35;7.50;;;;;;;-147.20;100.00;63046.97;31542014;28;20358;-66
2023/11/10 16:30:26;;;;;;;14.73;9.18;;;;;;;-147.20;100.00;63046.97;31537149;28;20032;-65
2023/11/10 16:45:27;;;;;;;17.30;9.18;;;;;;;-147.20;100.00;63046.97;31536598;28;20040;-64
2023/11/10 17:00:27;;;;;;;21.08;10.35;;;;;;;-147.20;100.00;63046.97;31537767;28;22560;-65
2023/11/10 17:15:28;;;;;;;20.02;10.85;;;;;;;-147.20;100.00;63046.97;31534500;28;24281;-66
2023/11/10 17:30:28;;;;;;;16.60;9.82;;;;;;;-147.20;100.00;63046.97;31533349;28;20041;-64
2023/11/10 17:45:30;;;;;;;12.50;7.65;;;;;;;-147.20;100.00;63046.97;31531393;28;20029;-64
2023/11/10 18:00:30;;;;;;;20.95;11.45;;;;;;;-147.20;100.00;63046.97;31544431;28;20063;-64
2023/11/10 18:15:30;;;;;;;11.82;7.63;;;;;;;-147.20;100.00;63046.97;31551973;28;24251;-65
2023/11/10 18:30:30;;;;;;;15.27;10.00;;;;;;;-147.20;100.00;63046.97;31554098;28;20782;-65
2023/11/10 18:45:31;;;;;;;14.77;9.38;;;;;;;-147.20;100.00;63046.97;31549144;28;23473;-65
2023/11/10 19:00:31;;;;;;;15.90;9.68;;;;;;;-147.20;100.00;63046.97;31548796;28;20056;-64
2023/11/10 19:15:31;;;;;;;17.27;9.90;;;;;;;-147.20;100.00;63046.97;31547434;28;20033;-65
2023/11/10 19:30:32;;;;;;;19.13;11.40;;;;;;;-147.20;100.00;63046.97;31547521;28;20033;-65
2023/11/10 19:45:33;;;;;;;26.17;13.57;;;;;;;-147.20;100.00;63046.97;31545967;28;26216;-66
2023/11/10 20:00:33;;;;;;;30.35;18.05;;;;;;;-147.20;100.00;63046.97;31545524;28;20049;-65
2023/11/10 20:15:35;;;;;;;21.67;14.13;;;;;;;-147.20;100.00;63046.97;31542946;28;20029;-65
2023/11/10 20:30:38;;;;;;;24.10;13.65;;;;;;;-147.20;100.00;63046.97;31542105;28;20105;-66
2023/11/10 20:45:39;;;;;;;26.17;15.10;;;;;;;-147.20;100.00;63046.97;31539502;28;20122;-64
2023/11/10 21:00:39;;;;;;;27.95;15.10;;;;;;;-147.20;100.00;63046.97;31536085;28;20052;-64
2023/11/10 21:15:45;;;;;;;23.33;14.35;;;;;;;-147.20;100.00;63046.97;31533828;28;20449;-65
2023/11/10 21:30:46;;;;;;;33.30;17.45;;;;;;;-147.20;100.00;63046.97;31534954;28;20072;-66
2023/11/10 21:45:47;;;;;;;38.55;22.35;;;;;;;-147.20;100.00;63046.97;31535698;28;20068;-64
2023/11/10 22:00:47;;;;;;;54.40;30.05;;;;;;;-147.20;100.00;63046.97;31533807;28;20103;-64
2023/11/10 22:15:48;;;;;;;45.58;26.13;;;;;;;-147.20;100.00;63046.97;31533068;28;20395;-65
2023/11/10 22:30:48;;;;;;;50.58;26.80;;;;;;;-147.20;100.00;63046.97;31531813;28;25934;-64
2023/11/10 22:45:48;;;;;;;63.13;31.25;;;;;;;-147.20;100.00;63046.97;31541896;28;20424;-65
2023/11/10 23:00:51;;;;;;;56.47;31.08;;;;;;;-147.20;100.00;63046.97;31552184;28;20941;-64
2023/11/10 23:15:51;;;;;;;51.58;30.70;;;;;;;-147.20;100.00;63046.97;31551506;28;20044;-62
2023/11/10 23:30:51;;;;;;;41.35;24.30;;;;;;;-147.20;100.00;63046.97;31550900;28;20041;-65
2023/11/10 23:45:52;;;;;;;48.40;28.80;;;;;;;-147.20;100.00;63046.97;31549251;28;20118;-64
